sensor_id;sensor_type;location;lat;lon;timestamp;temperature;humidity
11619;DHT22;5865;48.776;9.280;2023-09-19T00:00:16;17.00;99.90
11619;DHT22;5865;48.776;9.280;2023-09-19T00:02:53;16.90;99.90
11619;DHT22;5865;48.776;9.280;2023-09-19T00:05:20;17.00;99.90
11619;DHT22;5865;48.776;9.280;2023-09-19T00:07:50;16.90;99.90
11619;DHT22;5865;48.776;9.280;2023-09-19T00:10:19;16.90;99.90
11619;DHT22;5865;48.776;9.280;2023-09-19T00:12:47;16.80;99.90
11619;DHT22;5865;48.776;9.280;2023-09-19T00:15:14;16.80;99.90
11619;DHT22;5865;48.776;9.280;2023-09-19T00:17:43;16.80;99.90
11619;DHT22;5865;48.776;9.280;2023-09-19T00:20:12;16.80;99.90
11619;DHT22;5865;48.776;9.280;2023-09-19T00:22:40;16.80;99.90
11619;DHT22;5865;48.776;9.280;2023-09-19T00:25:08;16.90;99.90
11619;DHT22;5865;48.776;9.280;2023-09-19T00:30:08;16.70;99.90
11619;DHT22;5865;48.776;9.280;2023-09-19T00:32:40;16.70;99.90
11619;DHT22;5865;48.776;9.280;2023-09-19T00:35:07;16.70;99.90
11619;DHT22;5865;48.776;9.280;2023-09-19T00:37:37;16.70;99.90
11619;DHT22;5865;48.776;9.280;2023-09-19T00:40:06;16.60;99.90
11619;DHT22;5865;48.776;9.280;2023-09-19T00:42:36;16.70;99.90
11619;DHT22;5865;48.776;9.280;2023-09-19T00:45:04;16.60;99.90
11619;DHT22;5865;48.776;9.280;2023-09-19T00:47:32;16.60;99.90
11619;DHT22;5865;48.776;9.280;2023-09-19T00:49:59;16.60;99.90
11619;DHT22;5865;48.776;9.280;2023-09-19T00:52:27;16.60;99.90
11619;DHT22;5865;48.776;9.280;2023-09-19T00:57:25;16.60;99.90
11619;DHT22;5865;48.776;9.280;2023-09-19T00:59:54;16.60;99.90
11619;DHT22;5865;48.776;9.280;2023-09-19T01:04:51;16.60;99.90
11619;DHT22;5865;48.776;9.280;2023-09-19T01:07:19;16.60;99.90
11619;DHT22;5865;48.776;9.280;2023-09-19T01:09:49;16.60;99.90
11619;DHT22;5865;48.776;9.280;2023-09-19T01:12:26;16.60;99.90
11619;DHT22;5865;48.776;9.280;2023-09-19T01:15:03;16.60;99.90
11619;DHT22;5865;48.776;9.280;2023-09-19T01:17:43;16.60;99.90
11619;DHT22;5865;48.776;9.280;2023-09-19T01:23:22;16.60;99.90
11619;DHT22;5865;48.776;9.280;2023-09-19T01:26:06;16.60;99.90
11619;DHT22;5865;48.776;9.280;2023-09-19T01:28:45;16.60;99.90
11619;DHT22;5865;48.776;9.280;2023-09-19T01:31:21;16.50;99.90
11619;DHT22;5865;48.776;9.280;2023-09-19T01:34:00;16.60;99.90
11619;DHT22;5865;48.776;9.280;2023-09-19T01:36:32;16.60;99.90
11619;DHT22;5865;48.776;9.280;2023-09-19T01:39:02;16.60;99.90
11619;DHT22;5865;48.776;9.280;2023-09-19T01:41:47;16.60;99.90
11619;DHT22;5865;48.776;9.280;2023-09-19T01:44:24;16.60;99.90
11619;DHT22;5865;48.776;9.280;2023-09-19T01:46:58;16.50;99.90
11619;DHT22;5865;48.776;9.280;2023-09-19T01:49:33;16.50;99.90
11619;DHT22;5865;48.776;9.280;2023-09-19T01:52:10;16.50;99.90
11619;DHT22;5865;48.776;9.280;2023-09-19T01:54:45;16.60;99.90
11619;DHT22;5865;48.776;9.280;2023-09-19T01:57:17;16.60;99.90
11619;DHT22;5865;48.776;9.280;2023-09-19T01:59:50;16.60;99.90
11619;DHT22;5865;48.776;9.280;2023-09-19T02:02:23;16.50;99.90
11619;DHT22;5865;48.776;9.280;2023-09-19T02:04:51;16.40;99.90
11619;DHT22;5865;48.776;9.280;2023-09-19T02:09:46;16.50;99.90
11619;DHT22;5865;48.776;9.280;2023-09-19T02:14:41;16.40;99.90
11619;DHT22;5865;48.776;9.280;2023-09-19T02:17:08;16.50;99.90
11619;DHT22;5865;48.776;9.280;2023-09-19T02:19:38;16.50;99.90
11619;DHT22;5865;48.776;9.280;2023-09-19T02:22:07;16.40;99.90
11619;DHT22;5865;48.776;9.280;2023-09-19T02:24:36;16.30;99.90
11619;DHT22;5865;48.776;9.280;2023-09-19T02:27:04;16.20;99.90
11619;DHT22;5865;48.776;9.280;2023-09-19T02:29:33;16.20;99.90
11619;DHT22;5865;48.776;9.280;2023-09-19T02:32:02;16.20;99.90
11619;DHT22;5865;48.776;9.280;2023-09-19T02:34:29;16.20;99.90
11619;DHT22;5865;48.776;9.280;2023-09-19T02:36:58;16.30;99.90
11619;DHT22;5865;48.776;9.280;2023-09-19T02:39:25;16.20;99.90
11619;DHT22;5865;48.776;9.280;2023-09-19T02:41:53;16.20;99.90
11619;DHT22;5865;48.776;9.280;2023-09-19T02:44:21;16.10;99.90
11619;DHT22;5865;48.776;9.280;2023-09-19T02:46:50;16.00;99.90
11619;DHT22;5865;48.776;9.280;2023-09-19T02:49:17;16.00;99.90
11619;DHT22;5865;48.776;9.280;2023-09-19T02:51:44;16.10;99.90
11619;DHT22;5865;48.776;9.280;2023-09-19T02:54:14;15.90;99.90
11619;DHT22;5865;48.776;9.280;2023-09-19T02:56:41;15.90;99.90
11619;DHT22;5865;48.776;9.280;2023-09-19T02:59:09;15.80;99.90
11619;DHT22;5865;48.776;9.280;2023-09-19T03:01:36;15.60;99.90
11619;DHT22;5865;48.776;9.280;2023-09-19T03:04:04;15.50;99.90
11619;DHT22;5865;48.776;9.280;2023-09-19T03:06:32;15.60;99.90
11619;DHT22;5865;48.776;9.280;2023-09-19T03:09:00;15.70;99.90
11619;DHT22;5865;48.776;9.280;2023-09-19T03:11:30;15.80;99.90
11619;DHT22;5865;48.776;9.280;2023-09-19T03:13:57;16.00;99.90
11619;DHT22;5865;48.776;9.280;2023-09-19T03:16:24;16.10;99.90
11619;DHT22;5865;48.776;9.280;2023-09-19T03:18:57;16.10;99.90
11619;DHT22;5865;48.776;9.280;2023-09-19T03:24:08;16.10;99.90
11619;DHT22;5865;48.776;9.280;2023-09-19T03:26:37;16.10;99.90
11619;DHT22;5865;48.776;9.280;2023-09-19T03:29:04;16.10;99.90
11619;DHT22;5865;48.776;9.280;2023-09-19T03:31:33;16.20;99.90
11619;DHT22;5865;48.776;9.280;2023-09-19T03:34:03;16.30;99.90
11619;DHT22;5865;48.776;9.280;2023-09-19T03:36:30;16.30;99.90
11619;DHT22;5865;48.776;9.280;2023-09-19T03:39:00;16.40;99.90
11619;DHT22;5865;48.776;9.280;2023-09-19T03:41:30;16.30;99.90
11619;DHT22;5865;48.776;9.280;2023-09-19T03:46:28;16.40;99.90
11619;DHT22;5865;48.776;9.280;2023-09-19T03:48:56;16.30;99.90
11619;DHT22;5865;48.776;9.280;2023-09-19T03:51:23;16.40;99.90
11619;DHT22;5865;48.776;9.280;2023-09-19T03:53:50;16.30;99.90
11619;DHT22;5865;48.776;9.280;2023-09-19T03:56:16;16.30;99.90
11619;DHT22;5865;48.776;9.280;2023-09-19T03:58:43;16.30;99.90
11619;DHT22;5865;48.776;9.280;2023-09-19T04:01:12;16.40;99.90
11619;DHT22;5865;48.776;9.280;2023-09-19T04:18:37;16.30;99.90
11619;DHT22;5865;48.776;9.280;2023-09-19T04:21:06;16.30;99.90
11619;DHT22;5865;48.776;9.280;2023-09-19T04:23:33;16.10;99.90
11619;DHT22;5865;48.776;9.280;2023-09-19T04:26:00;16.00;99.90
11619;DHT22;5865;48.776;9.280;2023-09-19T04:28:29;15.90;99.90
11619;DHT22;5865;48.776;9.280;2023-09-19T04:33:40;16.00;99.90
11619;DHT22;5865;48.776;9.280;2023-09-19T04:36:09;16.10;99.90
11619;DHT22;5865;48.776;9.280;2023-09-19T04:38:40;16.10;99.90
11619;DHT22;5865;48.776;9.280;2023-09-19T04:41:07;13.10;99.90
11619;DHT22;5865;48.776;9.280;2023-09-19T04:46:02;16.10;99.90
11619;DHT22;5865;48.776;9.280;2023-09-19T04:48:28;16.10;99.90
11619;DHT22;5865;48.776;9.280;2023-09-19T04:53:25;16.20;99.90
11619;DHT22;5865;48.776;9.280;2023-09-19T05:00:48;16.10;99.90
11619;DHT22;5865;48.776;9.280;2023-09-19T05:03:16;16.10;99.90
11619;DHT22;5865;48.776;9.280;2023-09-19T05:16:29;15.90;99.90
11619;DHT22;5865;48.776;9.280;2023-09-19T05:19:06;15.90;99.90
11619;DHT22;5865;48.776;9.280;2023-09-19T05:21:41;15.70;99.90
11619;DHT22;5865;48.776;9.280;2023-09-19T05:24:12;15.80;99.90
11619;DHT22;5865;48.776;9.280;2023-09-19T05:31:56;15.60;99.90
11619;DHT22;5865;48.776;9.280;2023-09-19T05:34:25;15.60;99.90
11619;DHT22;5865;48.776;9.280;2023-09-19T05:36:57;15.50;99.90
11619;DHT22;5865;48.776;9.280;2023-09-19T05:39:26;15.50;99.90
11619;DHT22;5865;48.776;9.280;2023-09-19T05:44:27;15.50;99.90
11619;DHT22;5865;48.776;9.280;2023-09-19T05:49:36;15.50;99.90
11619;DHT22;5865;48.776;9.280;2023-09-19T05:52:05;15.50;99.90
11619;DHT22;5865;48.776;9.280;2023-09-19T05:54:36;15.50;99.90
11619;DHT22;5865;48.776;9.280;2023-09-19T05:57:05;15.50;99.90
11619;DHT22;5865;48.776;9.280;2023-09-19T05:59:32;15.40;99.90
11619;DHT22;5865;48.776;9.280;2023-09-19T07:02:06;15.70;99.90
11619;DHT22;5865;48.776;9.280;2023-09-19T07:19:08;16.30;99.90
11619;DHT22;5865;48.776;9.280;2023-09-19T07:54:33;17.60;99.90
11619;DHT22;5865;48.776;9.280;2023-09-19T09:18:35;20.80;99.90
11619;DHT22;5865;48.776;9.280;2023-09-19T09:26:45;20.10;99.90
11619;DHT22;5865;48.776;9.280;2023-09-19T09:44:01;20.40;99.90
11619;DHT22;5865;48.776;9.280;2023-09-19T11:22:13;22.30;99.90
11619;DHT22;5865;48.776;9.280;2023-09-19T12:07:51;22.30;99.90
11619;DHT22;5865;48.776;9.280;2023-09-19T13:03:24;22.70;99.90
11619;DHT22;5865;48.776;9.280;2023-09-19T15:44:19;23.20;88.00
11619;DHT22;5865;48.776;9.280;2023-09-19T15:55:06;22.90;90.20
11619;DHT22;5865;48.776;9.280;2023-09-19T16:03:30;22.60;90.90
11619;DHT22;5865;48.776;9.280;2023-09-19T16:06:15;22.60;91.20
11619;DHT22;5865;48.776;9.280;2023-09-19T16:08:50;22.60;91.40
11619;DHT22;5865;48.776;9.280;2023-09-19T16:11:33;22.40;91.30
11619;DHT22;5865;48.776;9.280;2023-09-19T16:14:11;22.40;92.20
11619;DHT22;5865;48.776;9.280;2023-09-19T17:36:14;18.50;99.90
11619;DHT22;5865;48.776;9.280;2023-09-19T17:38:43;18.40;99.90
11619;DHT22;5865;48.776;9.280;2023-09-19T17:41:10;18.10;99.90
11619;DHT22;5865;48.776;9.280;2023-09-19T17:43:38;18.00;99.90
11619;DHT22;5865;48.776;9.280;2023-09-19T17:46:06;17.90;99.90
11619;DHT22;5865;48.776;9.280;2023-09-19T17:48:35;17.60;99.90
11619;DHT22;5865;48.776;9.280;2023-09-19T17:51:02;17.30;99.90
11619;DHT22;5865;48.776;9.280;2023-09-19T18:37:22;15.30;99.90
11619;DHT22;5865;48.776;9.280;2023-09-19T18:39:49;15.30;99.90
11619;DHT22;5865;48.776;9.280;2023-09-19T18:42:16;15.20;99.90
11619;DHT22;5865;48.776;9.280;2023-09-19T18:47:11;15.00;99.90
11619;DHT22;5865;48.776;9.280;2023-09-19T18:49:38;14.90;99.90
